Omaha, Texas
Current Conditions -  °F | °C
As of 3:35 AM on Monday 24 Nov 2014 (Local Time) from KOSA Reporting Station
Clear Clear  
Wind Chill: 43°   Ceiling: Unl
Heat Index: 47°   Visibility: 10mi
Dew Point: 37°   Wind: 9mph
Humidity: 68%   Direction: 300°WNW
Pressure: 29.87"   Gusts: 17mph
Location:  33.18°N, 94.74°W
Report Text: KOSA 240935Z AUTO 30008G15KT 10SM CLR 09/03 A2987 RMK AO1 T00850029
Loading
Personal Weather Stations






























Interactive Weather Map New forecast layout! Learn more

10-Day Weather Forecast

Advertisements
Track Severe Weather on mobile